sensor_id;sensor_type;location;lat;lon;timestamp;P1;durP1;ratioP1;P2;durP2;ratioP2
46391;SDS011;32098;49.448;7.904;2023-08-31T00:00:49;3.00;;;2.33;;
46391;SDS011;32098;49.448;7.904;2023-08-31T00:03:19;2.47;;;2.27;;
46391;SDS011;32098;49.448;7.904;2023-08-31T00:05:46;3.30;;;2.67;;
46391;SDS011;32098;49.448;7.904;2023-08-31T00:08:13;3.37;;;3.07;;
46391;SDS011;32098;49.448;7.904;2023-08-31T00:10:39;5.97;;;3.07;;
46391;SDS011;32098;49.448;7.904;2023-08-31T00:13:08;6.70;;;3.70;;
46391;SDS011;32098;49.448;7.904;2023-08-31T00:15:35;4.63;;;3.20;;
46391;SDS011;32098;49.448;7.904;2023-08-31T00:18:03;4.73;;;3.80;;
46391;SDS011;32098;49.448;7.904;2023-08-31T00:20:30;6.17;;;4.63;;
46391;SDS011;32098;49.448;7.904;2023-08-31T00:22:57;5.60;;;4.03;;
46391;SDS011;32098;49.448;7.904;2023-08-31T00:25:24;4.80;;;3.90;;
46391;SDS011;32098;49.448;7.904;2023-08-31T00:27:51;4.75;;;3.60;;
46391;SDS011;32098;49.448;7.904;2023-08-31T00:30:18;5.30;;;3.63;;
46391;SDS011;32098;49.448;7.904;2023-08-31T00:32:46;3.90;;;3.33;;
46391;SDS011;32098;49.448;7.904;2023-08-31T00:35:16;3.87;;;3.23;;
46391;SDS011;32098;49.448;7.904;2023-08-31T00:37:43;3.60;;;2.80;;
46391;SDS011;32098;49.448;7.904;2023-08-31T00:40:10;3.97;;;3.05;;
46391;SDS011;32098;49.448;7.904;2023-08-31T00:42:40;4.05;;;2.83;;
46391;SDS011;32098;49.448;7.904;2023-08-31T00:45:06;3.47;;;3.10;;
46391;SDS011;32098;49.448;7.904;2023-08-31T00:47:33;3.80;;;3.23;;
46391;SDS011;32098;49.448;7.904;2023-08-31T00:50:00;5.80;;;3.60;;
46391;SDS011;32098;49.448;7.904;2023-08-31T00:52:28;5.43;;;4.30;;
46391;SDS011;32098;49.448;7.904;2023-08-31T00:54:55;6.23;;;4.70;;
46391;SDS011;32098;49.448;7.904;2023-08-31T00:57:22;5.93;;;4.95;;
46391;SDS011;32098;49.448;7.904;2023-08-31T00:59:52;6.13;;;5.18;;
46391;SDS011;32098;49.448;7.904;2023-08-31T01:02:20;9.07;;;5.47;;
46391;SDS011;32098;49.448;7.904;2023-08-31T01:05:37;8.00;;;5.13;;
46391;SDS011;32098;49.448;7.904;2023-08-31T01:08:02;6.03;;;5.30;;
46391;SDS011;32098;49.448;7.904;2023-08-31T01:13:24;7.22;;;5.22;;
46391;SDS011;32098;49.448;7.904;2023-08-31T01:15:53;9.18;;;5.80;;
46391;SDS011;32098;49.448;7.904;2023-08-31T01:18:23;8.43;;;5.90;;
46391;SDS011;32098;49.448;7.904;2023-08-31T01:21:02;7.20;;;5.37;;
46391;SDS011;32098;49.448;7.904;2023-08-31T01:26:20;7.90;;;5.32;;
46391;SDS011;32098;49.448;7.904;2023-08-31T01:28:49;6.75;;;5.40;;
46391;SDS011;32098;49.448;7.904;2023-08-31T01:31:17;6.13;;;4.75;;
46391;SDS011;32098;49.448;7.904;2023-08-31T01:33:46;5.68;;;4.38;;
46391;SDS011;32098;49.448;7.904;2023-08-31T01:39:05;5.45;;;4.00;;
46391;SDS011;32098;49.448;7.904;2023-08-31T01:41:37;6.33;;;4.70;;
46391;SDS011;32098;49.448;7.904;2023-08-31T01:44:09;6.30;;;4.87;;
46391;SDS011;32098;49.448;7.904;2023-08-31T01:46:45;6.43;;;5.60;;
46391;SDS011;32098;49.448;7.904;2023-08-31T01:49:12;6.60;;;5.37;;
46391;SDS011;32098;49.448;7.904;2023-08-31T01:51:40;6.07;;;4.90;;
46391;SDS011;32098;49.448;7.904;2023-08-31T01:54:07;8.07;;;5.50;;
46391;SDS011;32098;49.448;7.904;2023-08-31T01:56:33;9.07;;;5.13;;
46391;SDS011;32098;49.448;7.904;2023-08-31T01:59:00;6.57;;;5.20;;
46391;SDS011;32098;49.448;7.904;2023-08-31T02:01:27;7.20;;;4.97;;
46391;SDS011;32098;49.448;7.904;2023-08-31T02:03:55;6.60;;;4.83;;
46391;SDS011;32098;49.448;7.904;2023-08-31T02:06:22;6.17;;;4.90;;
46391;SDS011;32098;49.448;7.904;2023-08-31T02:08:48;7.87;;;4.70;;
46391;SDS011;32098;49.448;7.904;2023-08-31T02:11:17;7.53;;;5.20;;
46391;SDS011;32098;49.448;7.904;2023-08-31T02:13:43;6.83;;;4.87;;
46391;SDS011;32098;49.448;7.904;2023-08-31T02:16:10;5.83;;;4.90;;
46391;SDS011;32098;49.448;7.904;2023-08-31T02:18:37;7.53;;;4.80;;
46391;SDS011;32098;49.448;7.904;2023-08-31T02:21:04;6.57;;;4.70;;
46391;SDS011;32098;49.448;7.904;2023-08-31T02:23:33;6.90;;;4.80;;
46391;SDS011;32098;49.448;7.904;2023-08-31T02:26:00;6.90;;;4.70;;
46391;SDS011;32098;49.448;7.904;2023-08-31T02:28:27;7.47;;;4.85;;
46391;SDS011;32098;49.448;7.904;2023-08-31T02:31:01;6.43;;;4.57;;
46391;SDS011;32098;49.448;7.904;2023-08-31T02:33:29;6.53;;;4.93;;
46391;SDS011;32098;49.448;7.904;2023-08-31T02:35:56;4.67;;;4.10;;
46391;SDS011;32098;49.448;7.904;2023-08-31T02:38:22;6.77;;;4.77;;
46391;SDS011;32098;49.448;7.904;2023-08-31T02:40:51;6.47;;;4.57;;
46391;SDS011;32098;49.448;7.904;2023-08-31T02:43:17;4.77;;;4.27;;
46391;SDS011;32098;49.448;7.904;2023-08-31T02:45:44;4.83;;;3.93;;
46391;SDS011;32098;49.448;7.904;2023-08-31T02:48:10;7.27;;;4.33;;
46391;SDS011;32098;49.448;7.904;2023-08-31T02:50:38;7.93;;;4.30;;
46391;SDS011;32098;49.448;7.904;2023-08-31T02:53:04;5.77;;;4.03;;
46391;SDS011;32098;49.448;7.904;2023-08-31T02:55:32;5.33;;;3.93;;
46391;SDS011;32098;49.448;7.904;2023-08-31T02:57:59;7.07;;;4.13;;
46391;SDS011;32098;49.448;7.904;2023-08-31T03:00:26;6.80;;;3.60;;
46391;SDS011;32098;49.448;7.904;2023-08-31T03:02:53;5.80;;;3.97;;
46391;SDS011;32098;49.448;7.904;2023-08-31T03:05:20;8.20;;;3.77;;
46391;SDS011;32098;49.448;7.904;2023-08-31T03:07:49;5.47;;;3.70;;
46391;SDS011;32098;49.448;7.904;2023-08-31T03:10:17;10.00;;;3.67;;
46391;SDS011;32098;49.448;7.904;2023-08-31T03:12:44;5.37;;;3.90;;
46391;SDS011;32098;49.448;7.904;2023-08-31T03:15:11;8.07;;;3.87;;
46391;SDS011;32098;49.448;7.904;2023-08-31T03:17:37;4.77;;;3.53;;
46391;SDS011;32098;49.448;7.904;2023-08-31T03:20:04;7.63;;;3.60;;
46391;SDS011;32098;49.448;7.904;2023-08-31T03:22:32;4.37;;;3.40;;
46391;SDS011;32098;49.448;7.904;2023-08-31T03:24:59;6.53;;;3.47;;
46391;SDS011;32098;49.448;7.904;2023-08-31T03:27:26;7.00;;;3.47;;
46391;SDS011;32098;49.448;7.904;2023-08-31T03:29:52;5.00;;;3.57;;
46391;SDS011;32098;49.448;7.904;2023-08-31T03:32:19;7.77;;;3.80;;
46391;SDS011;32098;49.448;7.904;2023-08-31T03:34:45;5.67;;;3.60;;
46391;SDS011;32098;49.448;7.904;2023-08-31T03:37:12;5.13;;;3.03;;
46391;SDS011;32098;49.448;7.904;2023-08-31T03:39:39;6.23;;;3.50;;
46391;SDS011;32098;49.448;7.904;2023-08-31T03:42:07;5.27;;;3.10;;
46391;SDS011;32098;49.448;7.904;2023-08-31T03:44:35;4.80;;;3.17;;
46391;SDS011;32098;49.448;7.904;2023-08-31T03:47:03;7.50;;;3.50;;
46391;SDS011;32098;49.448;7.904;2023-08-31T03:49:32;5.37;;;3.30;;
46391;SDS011;32098;49.448;7.904;2023-08-31T03:51:59;4.43;;;2.92;;
46391;SDS011;32098;49.448;7.904;2023-08-31T03:54:26;4.77;;;3.00;;
46391;SDS011;32098;49.448;7.904;2023-08-31T03:56:53;4.03;;;3.00;;
46391;SDS011;32098;49.448;7.904;2023-08-31T03:59:20;4.47;;;3.20;;
46391;SDS011;32098;49.448;7.904;2023-08-31T04:01:46;4.13;;;2.87;;
46391;SDS011;32098;49.448;7.904;2023-08-31T04:04:13;4.70;;;2.80;;
46391;SDS011;32098;49.448;7.904;2023-08-31T04:06:40;5.53;;;3.10;;
46391;SDS011;32098;49.448;7.904;2023-08-31T04:09:06;5.63;;;2.77;;
46391;SDS011;32098;49.448;7.904;2023-08-31T04:11:33;4.60;;;3.47;;
46391;SDS011;32098;49.448;7.904;2023-08-31T04:13:59;5.23;;;2.80;;
46391;SDS011;32098;49.448;7.904;2023-08-31T04:16:26;5.47;;;3.00;;
46391;SDS011;32098;49.448;7.904;2023-08-31T04:18:54;5.03;;;3.20;;
46391;SDS011;32098;49.448;7.904;2023-08-31T04:21:21;5.10;;;2.90;;
46391;SDS011;32098;49.448;7.904;2023-08-31T04:23:48;5.47;;;3.10;;
46391;SDS011;32098;49.448;7.904;2023-08-31T04:26:15;5.43;;;2.83;;
46391;SDS011;32098;49.448;7.904;2023-08-31T04:28:43;3.40;;;2.70;;
46391;SDS011;32098;49.448;7.904;2023-08-31T04:31:09;3.30;;;2.70;;
46391;SDS011;32098;49.448;7.904;2023-08-31T04:33:37;4.37;;;3.00;;
46391;SDS011;32098;49.448;7.904;2023-08-31T04:36:04;4.63;;;3.13;;
46391;SDS011;32098;49.448;7.904;2023-08-31T04:38:32;4.47;;;2.90;;
46391;SDS011;32098;49.448;7.904;2023-08-31T04:41:00;3.00;;;2.60;;
46391;SDS011;32098;49.448;7.904;2023-08-31T04:43:27;4.03;;;3.00;;
46391;SDS011;32098;49.448;7.904;2023-08-31T04:45:53;6.17;;;2.90;;
46391;SDS011;32098;49.448;7.904;2023-08-31T04:48:21;6.33;;;3.37;;
46391;SDS011;32098;49.448;7.904;2023-08-31T04:50:48;4.87;;;3.23;;
46391;SDS011;32098;49.448;7.904;2023-08-31T04:53:14;6.07;;;3.00;;
46391;SDS011;32098;49.448;7.904;2023-08-31T04:55:41;6.47;;;3.00;;
46391;SDS011;32098;49.448;7.904;2023-08-31T04:58:08;5.93;;;3.50;;
46391;SDS011;32098;49.448;7.904;2023-08-31T05:00:34;5.43;;;3.30;;
46391;SDS011;32098;49.448;7.904;2023-08-31T05:03:01;8.33;;;3.73;;
46391;SDS011;32098;49.448;7.904;2023-08-31T05:05:28;12.00;;;3.67;;
46391;SDS011;32098;49.448;7.904;2023-08-31T05:07:59;4.30;;;3.03;;
46391;SDS011;32098;49.448;7.904;2023-08-31T05:10:25;5.30;;;3.00;;
46391;SDS011;32098;49.448;7.904;2023-08-31T05:12:52;5.17;;;3.57;;
46391;SDS011;32098;49.448;7.904;2023-08-31T05:15:18;9.33;;;3.80;;
46391;SDS011;32098;49.448;7.904;2023-08-31T05:17:45;9.40;;;3.57;;
46391;SDS011;32098;49.448;7.904;2023-08-31T05:20:11;6.60;;;3.07;;
46391;SDS011;32098;49.448;7.904;2023-08-31T05:22:39;6.17;;;3.30;;
46391;SDS011;32098;49.448;7.904;2023-08-31T05:25:05;6.43;;;3.13;;
46391;SDS011;32098;49.448;7.904;2023-08-31T05:27:32;7.83;;;3.60;;
46391;SDS011;32098;49.448;7.904;2023-08-31T05:29:58;7.13;;;3.70;;
46391;SDS011;32098;49.448;7.904;2023-08-31T05:32:27;5.97;;;3.67;;
46391;SDS011;32098;49.448;7.904;2023-08-31T05:34:54;6.30;;;3.17;;
46391;SDS011;32098;49.448;7.904;2023-08-31T05:37:21;6.80;;;3.47;;
46391;SDS011;32098;49.448;7.904;2023-08-31T05:39:48;6.00;;;3.47;;
46391;SDS011;32098;49.448;7.904;2023-08-31T05:42:15;7.43;;;3.63;;
46391;SDS011;32098;49.448;7.904;2023-08-31T05:44:42;6.13;;;2.80;;
46391;SDS011;32098;49.448;7.904;2023-08-31T05:47:09;4.13;;;2.50;;
46391;SDS011;32098;49.448;7.904;2023-08-31T05:49:36;5.30;;;2.58;;
46391;SDS011;32098;49.448;7.904;2023-08-31T05:52:02;6.20;;;3.27;;
46391;SDS011;32098;49.448;7.904;2023-08-31T05:54:29;6.00;;;2.55;;
46391;SDS011;32098;49.448;7.904;2023-08-31T05:56:56;4.78;;;2.63;;
46391;SDS011;32098;49.448;7.904;2023-08-31T05:59:22;5.90;;;2.53;;
46391;SDS011;32098;49.448;7.904;2023-08-31T06:01:49;4.93;;;2.42;;
46391;SDS011;32098;49.448;7.904;2023-08-31T06:04:17;5.03;;;2.30;;
46391;SDS011;32098;49.448;7.904;2023-08-31T06:06:43;5.95;;;2.55;;
46391;SDS011;32098;49.448;7.904;2023-08-31T06:09:10;5.25;;;2.60;;
46391;SDS011;32098;49.448;7.904;2023-08-31T06:11:37;3.13;;;1.80;;
46391;SDS011;32098;49.448;7.904;2023-08-31T06:14:03;5.57;;;2.60;;
46391;SDS011;32098;49.448;7.904;2023-08-31T06:16:30;4.68;;;2.40;;
46391;SDS011;32098;49.448;7.904;2023-08-31T06:18:56;4.80;;;2.20;;
46391;SDS011;32098;49.448;7.904;2023-08-31T06:21:23;5.53;;;2.70;;
46391;SDS011;32098;49.448;7.904;2023-08-31T06:23:49;4.03;;;2.15;;
46391;SDS011;32098;49.448;7.904;2023-08-31T06:26:16;3.72;;;1.88;;
46391;SDS011;32098;49.448;7.904;2023-08-31T06:28:42;5.00;;;1.90;;
46391;SDS011;32098;49.448;7.904;2023-08-31T06:31:09;3.65;;;1.98;;
46391;SDS011;32098;49.448;7.904;2023-08-31T06:33:35;2.72;;;1.42;;
46391;SDS011;32098;49.448;7.904;2023-08-31T06:36:03;3.95;;;1.75;;
46391;SDS011;32098;49.448;7.904;2023-08-31T06:38:30;4.60;;;1.85;;
46391;SDS011;32098;49.448;7.904;2023-08-31T06:40:56;3.88;;;1.77;;
46391;SDS011;32098;49.448;7.904;2023-08-31T06:43:25;4.38;;;1.80;;
46391;SDS011;32098;49.448;7.904;2023-08-31T06:45:55;3.58;;;1.63;;
46391;SDS011;32098;49.448;7.904;2023-08-31T06:48:32;4.35;;;1.83;;
46391;SDS011;32098;49.448;7.904;2023-08-31T06:50:59;4.13;;;1.80;;
46391;SDS011;32098;49.448;7.904;2023-08-31T06:53:26;3.88;;;1.88;;
46391;SDS011;32098;49.448;7.904;2023-08-31T06:55:53;6.47;;;1.55;;
46391;SDS011;32098;49.448;7.904;2023-08-31T06:58:19;6.03;;;1.73;;
46391;SDS011;32098;49.448;7.904;2023-08-31T07:00:47;3.53;;;1.45;;
46391;SDS011;32098;49.448;7.904;2023-08-31T07:03:14;5.05;;;1.77;;
46391;SDS011;32098;49.448;7.904;2023-08-31T07:05:41;4.07;;;1.52;;
46391;SDS011;32098;49.448;7.904;2023-08-31T07:08:09;4.50;;;1.40;;
46391;SDS011;32098;49.448;7.904;2023-08-31T07:10:36;4.88;;;1.60;;
46391;SDS011;32098;49.448;7.904;2023-08-31T07:13:03;3.38;;;1.60;;
46391;SDS011;32098;49.448;7.904;2023-08-31T07:15:31;3.35;;;1.42;;
46391;SDS011;32098;49.448;7.904;2023-08-31T07:17:58;3.20;;;1.50;;
46391;SDS011;32098;49.448;7.904;2023-08-31T07:20:24;3.17;;;1.45;;
46391;SDS011;32098;49.448;7.904;2023-08-31T07:22:52;3.90;;;1.63;;
46391;SDS011;32098;49.448;7.904;2023-08-31T07:25:18;3.70;;;1.70;;
46391;SDS011;32098;49.448;7.904;2023-08-31T07:27:45;4.60;;;1.55;;
46391;SDS011;32098;49.448;7.904;2023-08-31T07:30:12;3.13;;;1.30;;
46391;SDS011;32098;49.448;7.904;2023-08-31T07:32:39;3.30;;;1.40;;
46391;SDS011;32098;49.448;7.904;2023-08-31T07:35:06;4.43;;;1.65;;
46391;SDS011;32098;49.448;7.904;2023-08-31T07:37:33;5.15;;;1.55;;
46391;SDS011;32098;49.448;7.904;2023-08-31T07:39:59;4.43;;;1.67;;
46391;SDS011;32098;49.448;7.904;2023-08-31T07:42:26;3.15;;;1.38;;
46391;SDS011;32098;49.448;7.904;2023-08-31T07:44:52;2.88;;;1.40;;
46391;SDS011;32098;49.448;7.904;2023-08-31T07:47:19;5.40;;;1.83;;
46391;SDS011;32098;49.448;7.904;2023-08-31T07:49:45;4.45;;;1.50;;
46391;SDS011;32098;49.448;7.904;2023-08-31T07:52:12;3.88;;;1.50;;
46391;SDS011;32098;49.448;7.904;2023-08-31T07:54:39;2.90;;;1.30;;
46391;SDS011;32098;49.448;7.904;2023-08-31T07:57:05;4.82;;;1.65;;
46391;SDS011;32098;49.448;7.904;2023-08-31T07:59:32;6.20;;;1.90;;
46391;SDS011;32098;49.448;7.904;2023-08-31T08:01:59;2.40;;;1.17;;
46391;SDS011;32098;49.448;7.904;2023-08-31T08:04:26;4.35;;;1.65;;
46391;SDS011;32098;49.448;7.904;2023-08-31T08:06:53;2.17;;;1.33;;
46391;SDS011;32098;49.448;7.904;2023-08-31T08:09:20;4.97;;;1.23;;
46391;SDS011;32098;49.448;7.904;2023-08-31T08:11:47;3.92;;;2.20;;
46391;SDS011;32098;49.448;7.904;2023-08-31T08:14:13;4.22;;;1.60;;
46391;SDS011;32098;49.448;7.904;2023-08-31T08:16:42;5.65;;;1.80;;
46391;SDS011;32098;49.448;7.904;2023-08-31T08:19:08;3.05;;;1.65;;
46391;SDS011;32098;49.448;7.904;2023-08-31T08:21:35;3.92;;;1.33;;
46391;SDS011;32098;49.448;7.904;2023-08-31T08:24:01;5.38;;;1.33;;
46391;SDS011;32098;49.448;7.904;2023-08-31T08:26:29;4.70;;;1.60;;
46391;SDS011;32098;49.448;7.904;2023-08-31T08:28:55;4.53;;;1.40;;
46391;SDS011;32098;49.448;7.904;2023-08-31T08:31:22;4.50;;;1.52;;
46391;SDS011;32098;49.448;7.904;2023-08-31T08:33:51;2.83;;;1.20;;
46391;SDS011;32098;49.448;7.904;2023-08-31T08:36:17;4.25;;;1.50;;
46391;SDS011;32098;49.448;7.904;2023-08-31T08:38:44;3.10;;;1.38;;
46391;SDS011;32098;49.448;7.904;2023-08-31T08:41:10;4.53;;;1.45;;
46391;SDS011;32098;49.448;7.904;2023-08-31T08:43:38;6.28;;;1.67;;
46391;SDS011;32098;49.448;7.904;2023-08-31T08:46:10;2.92;;;1.40;;
46391;SDS011;32098;49.448;7.904;2023-08-31T08:48:37;2.97;;;1.45;;
46391;SDS011;32098;49.448;7.904;2023-08-31T08:51:05;2.17;;;1.25;;
46391;SDS011;32098;49.448;7.904;2023-08-31T08:53:33;3.78;;;1.40;;
46391;SDS011;32098;49.448;7.904;2023-08-31T08:56:00;2.65;;;1.33;;
46391;SDS011;32098;49.448;7.904;2023-08-31T08:58:27;3.95;;;1.40;;
46391;SDS011;32098;49.448;7.904;2023-08-31T09:00:54;3.47;;;1.38;;
46391;SDS011;32098;49.448;7.904;2023-08-31T09:03:23;2.92;;;1.25;;
46391;SDS011;32098;49.448;7.904;2023-08-31T09:05:50;3.08;;;1.45;;
46391;SDS011;32098;49.448;7.904;2023-08-31T09:08:26;3.45;;;1.50;;
46391;SDS011;32098;49.448;7.904;2023-08-31T09:10:57;6.05;;;1.42;;
46391;SDS011;32098;49.448;7.904;2023-08-31T09:13:28;4.90;;;1.65;;
46391;SDS011;32098;49.448;7.904;2023-08-31T09:15:55;2.38;;;1.30;;
46391;SDS011;32098;49.448;7.904;2023-08-31T09:18:26;2.55;;;1.60;;
46391;SDS011;32098;49.448;7.904;2023-08-31T09:20:54;5.13;;;1.40;;
46391;SDS011;32098;49.448;7.904;2023-08-31T09:23:25;2.38;;;1.13;;
46391;SDS011;32098;49.448;7.904;2023-08-31T09:25:52;2.10;;;1.20;;
46391;SDS011;32098;49.448;7.904;2023-08-31T09:28:27;3.03;;;1.40;;
46391;SDS011;32098;49.448;7.904;2023-08-31T09:31:07;1.80;;;1.30;;
46391;SDS011;32098;49.448;7.904;2023-08-31T09:33:34;2.88;;;1.35;;
46391;SDS011;32098;49.448;7.904;2023-08-31T09:36:03;6.47;;;1.40;;
46391;SDS011;32098;49.448;7.904;2023-08-31T09:38:32;3.08;;;1.30;;
46391;SDS011;32098;49.448;7.904;2023-08-31T09:41:07;2.70;;;1.13;;
46391;SDS011;32098;49.448;7.904;2023-08-31T09:43:33;2.60;;;1.33;;
46391;SDS011;32098;49.448;7.904;2023-08-31T09:46:00;2.92;;;1.20;;
46391;SDS011;32098;49.448;7.904;2023-08-31T09:48:29;4.45;;;1.77;;
46391;SDS011;32098;49.448;7.904;2023-08-31T09:50:58;3.58;;;1.65;;
46391;SDS011;32098;49.448;7.904;2023-08-31T09:53:30;3.67;;;1.50;;
46391;SDS011;32098;49.448;7.904;2023-08-31T09:55:58;2.88;;;1.48;;
46391;SDS011;32098;49.448;7.904;2023-08-31T09:58:25;3.70;;;1.60;;
46391;SDS011;32098;49.448;7.904;2023-08-31T10:00:55;5.78;;;2.38;;
46391;SDS011;32098;49.448;7.904;2023-08-31T10:03:22;3.03;;;1.63;;
46391;SDS011;32098;49.448;7.904;2023-08-31T10:05:50;5.75;;;1.63;;
46391;SDS011;32098;49.448;7.904;2023-08-31T10:08:17;4.68;;;1.65;;
46391;SDS011;32098;49.448;7.904;2023-08-31T10:10:44;3.20;;;1.50;;
46391;SDS011;32098;49.448;7.904;2023-08-31T10:13:13;4.13;;;2.28;;
46391;SDS011;32098;49.448;7.904;2023-08-31T10:15:41;3.30;;;1.70;;
46391;SDS011;32098;49.448;7.904;2023-08-31T10:18:09;2.92;;;1.63;;
46391;SDS011;32098;49.448;7.904;2023-08-31T10:20:36;5.10;;;1.55;;
46391;SDS011;32098;49.448;7.904;2023-08-31T10:23:04;4.93;;;1.80;;
46391;SDS011;32098;49.448;7.904;2023-08-31T10:28:17;6.97;;;2.08;;
46391;SDS011;32098;49.448;7.904;2023-08-31T10:33:40;3.50;;;1.80;;
46391;SDS011;32098;49.448;7.904;2023-08-31T10:36:14;7.57;;;1.95;;
46391;SDS011;32098;49.448;7.904;2023-08-31T10:38:45;6.53;;;1.98;;
46391;SDS011;32098;49.448;7.904;2023-08-31T10:41:22;3.97;;;1.70;;
46391;SDS011;32098;49.448;7.904;2023-08-31T10:43:53;7.40;;;1.95;;
46391;SDS011;32098;49.448;7.904;2023-08-31T10:51:37;6.00;;;1.95;;
46391;SDS011;32098;49.448;7.904;2023-08-31T10:54:09;5.32;;;1.88;;
46391;SDS011;32098;49.448;7.904;2023-08-31T10:59:26;4.28;;;1.80;;
46391;SDS011;32098;49.448;7.904;2023-08-31T11:02:07;5.07;;;1.75;;
46391;SDS011;32098;49.448;7.904;2023-08-31T11:05:17;4.72;;;1.88;;
46391;SDS011;32098;49.448;7.904;2023-08-31T11:07:31;5.63;;;1.73;;
46391;SDS011;32098;49.448;7.904;2023-08-31T11:10:21;4.53;;;1.90;;
46391;SDS011;32098;49.448;7.904;2023-08-31T11:12:52;5.50;;;1.50;;
46391;SDS011;32098;49.448;7.904;2023-08-31T11:15:21;7.15;;;1.77;;
46391;SDS011;32098;49.448;7.904;2023-08-31T11:17:50;7.18;;;2.40;;
46391;SDS011;32098;49.448;7.904;2023-08-31T11:20:19;4.60;;;2.28;;
46391;SDS011;32098;49.448;7.904;2023-08-31T11:22:47;4.25;;;1.80;;
46391;SDS011;32098;49.448;7.904;2023-08-31T11:25:21;4.93;;;1.98;;
46391;SDS011;32098;49.448;7.904;2023-08-31T11:27:57;4.55;;;2.00;;
46391;SDS011;32098;49.448;7.904;2023-08-31T11:30:26;5.40;;;1.90;;
46391;SDS011;32098;49.448;7.904;2023-08-31T11:32:54;5.70;;;1.90;;
46391;SDS011;32098;49.448;7.904;2023-08-31T11:35:21;5.93;;;2.20;;
46391;SDS011;32098;49.448;7.904;2023-08-31T11:37:52;4.43;;;2.22;;
46391;SDS011;32098;49.448;7.904;2023-08-31T11:40:22;5.32;;;1.98;;
46391;SDS011;32098;49.448;7.904;2023-08-31T11:42:49;3.15;;;1.70;;
46391;SDS011;32098;49.448;7.904;2023-08-31T11:45:18;5.38;;;2.13;;
46391;SDS011;32098;49.448;7.904;2023-08-31T11:47:46;6.15;;;2.00;;
46391;SDS011;32098;49.448;7.904;2023-08-31T11:50:14;5.07;;;1.85;;
46391;SDS011;32098;49.448;7.904;2023-08-31T11:52:43;2.70;;;1.67;;
46391;SDS011;32098;49.448;7.904;2023-08-31T11:55:11;4.85;;;1.83;;
46391;SDS011;32098;49.448;7.904;2023-08-31T11:57:47;3.00;;;1.73;;
46391;SDS011;32098;49.448;7.904;2023-08-31T12:00:23;6.15;;;2.10;;
46391;SDS011;32098;49.448;7.904;2023-08-31T12:02:57;4.88;;;2.00;;
46391;SDS011;32098;49.448;7.904;2023-08-31T12:05:25;6.03;;;1.90;;
46391;SDS011;32098;49.448;7.904;2023-08-31T12:07:53;4.30;;;1.77;;
46391;SDS011;32098;49.448;7.904;2023-08-31T12:10:25;5.60;;;2.22;;
46391;SDS011;32098;49.448;7.904;2023-08-31T12:12:52;5.43;;;2.10;;
46391;SDS011;32098;49.448;7.904;2023-08-31T12:15:21;8.40;;;2.25;;
46391;SDS011;32098;49.448;7.904;2023-08-31T12:17:49;5.50;;;2.40;;
46391;SDS011;32098;49.448;7.904;2023-08-31T12:20:25;6.57;;;2.55;;
46391;SDS011;32098;49.448;7.904;2023-08-31T12:22:54;4.75;;;2.05;;
46391;SDS011;32098;49.448;7.904;2023-08-31T12:25:22;4.63;;;1.98;;
46391;SDS011;32098;49.448;7.904;2023-08-31T12:27:48;3.63;;;1.88;;
46391;SDS011;32098;49.448;7.904;2023-08-31T12:30:16;3.60;;;1.88;;
46391;SDS011;32098;49.448;7.904;2023-08-31T12:32:43;4.95;;;2.30;;
46391;SDS011;32098;49.448;7.904;2023-08-31T12:35:09;5.97;;;1.98;;
46391;SDS011;32098;49.448;7.904;2023-08-31T12:37:37;4.28;;;2.08;;
46391;SDS011;32098;49.448;7.904;2023-08-31T12:40:05;4.95;;;1.92;;
46391;SDS011;32098;49.448;7.904;2023-08-31T12:42:33;6.00;;;2.33;;
46391;SDS011;32098;49.448;7.904;2023-08-31T12:44:59;5.20;;;2.08;;
46391;SDS011;32098;49.448;7.904;2023-08-31T12:47:26;7.20;;;1.80;;
46391;SDS011;32098;49.448;7.904;2023-08-31T12:49:52;6.70;;;2.10;;
46391;SDS011;32098;49.448;7.904;2023-08-31T12:52:19;3.70;;;2.17;;
46391;SDS011;32098;49.448;7.904;2023-08-31T12:54:45;5.10;;;1.98;;
46391;SDS011;32098;49.448;7.904;2023-08-31T12:57:12;4.05;;;2.03;;
46391;SDS011;32098;49.448;7.904;2023-08-31T12:59:39;3.75;;;2.10;;
46391;SDS011;32098;49.448;7.904;2023-08-31T13:02:05;4.65;;;1.98;;
46391;SDS011;32098;49.448;7.904;2023-08-31T13:04:37;5.40;;;2.42;;
46391;SDS011;32098;49.448;7.904;2023-08-31T13:07:06;5.90;;;1.95;;
46391;SDS011;32098;49.448;7.904;2023-08-31T13:09:32;3.35;;;1.92;;
46391;SDS011;32098;49.448;7.904;2023-08-31T13:11:59;6.10;;;2.00;;
46391;SDS011;32098;49.448;7.904;2023-08-31T13:14:25;2.53;;;1.85;;
46391;SDS011;32098;49.448;7.904;2023-08-31T13:16:52;5.78;;;2.20;;
46391;SDS011;32098;49.448;7.904;2023-08-31T13:19:19;5.22;;;1.98;;
46391;SDS011;32098;49.448;7.904;2023-08-31T13:21:46;6.10;;;2.33;;
46391;SDS011;32098;49.448;7.904;2023-08-31T13:24:12;5.45;;;1.75;;
46391;SDS011;32098;49.448;7.904;2023-08-31T13:26:39;6.68;;;2.05;;
46391;SDS011;32098;49.448;7.904;2023-08-31T13:29:07;4.93;;;1.98;;
46391;SDS011;32098;49.448;7.904;2023-08-31T13:31:34;4.15;;;2.28;;
46391;SDS011;32098;49.448;7.904;2023-08-31T13:34:00;3.88;;;1.80;;
46391;SDS011;32098;49.448;7.904;2023-08-31T13:36:28;6.45;;;2.20;;
46391;SDS011;32098;49.448;7.904;2023-08-31T13:38:54;4.22;;;1.52;;
46391;SDS011;32098;49.448;7.904;2023-08-31T13:41:21;6.93;;;2.20;;
46391;SDS011;32098;49.448;7.904;2023-08-31T13:43:47;4.82;;;1.98;;
46391;SDS011;32098;49.448;7.904;2023-08-31T13:46:14;5.80;;;2.33;;
46391;SDS011;32098;49.448;7.904;2023-08-31T13:48:40;6.22;;;1.83;;
46391;SDS011;32098;49.448;7.904;2023-08-31T13:51:07;7.25;;;2.28;;
46391;SDS011;32098;49.448;7.904;2023-08-31T13:53:33;4.82;;;1.98;;
46391;SDS011;32098;49.448;7.904;2023-08-31T13:56:01;4.95;;;2.20;;
46391;SDS011;32098;49.448;7.904;2023-08-31T13:58:28;6.03;;;2.20;;
46391;SDS011;32098;49.448;7.904;2023-08-31T14:00:54;5.50;;;2.20;;
46391;SDS011;32098;49.448;7.904;2023-08-31T14:03:23;5.15;;;1.98;;
46391;SDS011;32098;49.448;7.904;2023-08-31T14:05:50;5.18;;;1.90;;
46391;SDS011;32098;49.448;7.904;2023-08-31T14:08:16;4.85;;;2.25;;
46391;SDS011;32098;49.448;7.904;2023-08-31T14:10:43;4.15;;;1.80;;
46391;SDS011;32098;49.448;7.904;2023-08-31T14:13:09;10.50;;;2.00;;
46391;SDS011;32098;49.448;7.904;2023-08-31T14:15:38;7.43;;;2.22;;
46391;SDS011;32098;49.448;7.904;2023-08-31T14:18:12;5.32;;;2.03;;
46391;SDS011;32098;49.448;7.904;2023-08-31T14:20:42;5.15;;;2.00;;
46391;SDS011;32098;49.448;7.904;2023-08-31T14:23:09;4.05;;;2.00;;
46391;SDS011;32098;49.448;7.904;2023-08-31T14:25:36;6.25;;;2.20;;
46391;SDS011;32098;49.448;7.904;2023-08-31T14:28:04;5.63;;;1.98;;
46391;SDS011;32098;49.448;7.904;2023-08-31T14:30:31;6.43;;;1.88;;
46391;SDS011;32098;49.448;7.904;2023-08-31T14:32:58;3.97;;;2.08;;
46391;SDS011;32098;49.448;7.904;2023-08-31T14:35:24;5.53;;;2.42;;
46391;SDS011;32098;49.448;7.904;2023-08-31T14:37:51;6.63;;;2.25;;
46391;SDS011;32098;49.448;7.904;2023-08-31T14:40:18;3.47;;;2.17;;
46391;SDS011;32098;49.448;7.904;2023-08-31T14:42:45;5.15;;;2.00;;
46391;SDS011;32098;49.448;7.904;2023-08-31T14:45:11;4.63;;;2.00;;
46391;SDS011;32098;49.448;7.904;2023-08-31T14:47:38;6.35;;;2.20;;
46391;SDS011;32098;49.448;7.904;2023-08-31T14:50:04;5.03;;;2.45;;
46391;SDS011;32098;49.448;7.904;2023-08-31T14:52:31;10.63;;;2.28;;
46391;SDS011;32098;49.448;7.904;2023-08-31T14:54:58;7.97;;;2.58;;
46391;SDS011;32098;49.448;7.904;2023-08-31T14:57:24;5.18;;;2.20;;
46391;SDS011;32098;49.448;7.904;2023-08-31T14:59:51;3.95;;;1.90;;
46391;SDS011;32098;49.448;7.904;2023-08-31T15:02:20;7.20;;;2.35;;
46391;SDS011;32098;49.448;7.904;2023-08-31T15:04:50;6.55;;;2.03;;
46391;SDS011;32098;49.448;7.904;2023-08-31T15:07:16;5.18;;;2.10;;
46391;SDS011;32098;49.448;7.904;2023-08-31T15:09:43;6.82;;;2.40;;
46391;SDS011;32098;49.448;7.904;2023-08-31T15:12:10;3.97;;;2.03;;
46391;SDS011;32098;49.448;7.904;2023-08-31T15:14:37;4.50;;;2.05;;